createdAt,value
2019-06-07T00:01:57.328Z,14.80
2019-06-07T00:04:27.059Z,14.70
2019-06-07T00:06:56.793Z,14.70
2019-06-07T00:09:26.501Z,14.70
2019-06-07T00:11:56.181Z,14.70
2019-06-07T00:14:27.299Z,14.70
2019-06-07T00:16:57.067Z,14.70
2019-06-07T00:19:26.717Z,14.70
2019-06-07T00:22:16.569Z,14.70
2019-06-07T00:24:51.696Z,14.70
2019-06-07T00:27:22.534Z,14.80
2019-06-07T00:29:54.394Z,14.80
2019-06-07T00:32:24.078Z,14.80
2019-06-07T00:34:53.779Z,14.80
2019-06-07T00:37:25.587Z,14.90
2019-06-07T00:40:13.516Z,14.90
2019-06-07T00:42:28.235Z,14.90
2019-06-07T00:44:57.989Z,14.90
2019-06-07T00:47:29.231Z,14.90
2019-06-07T00:50:00.181Z,14.90
2019-06-07T00:55:01.422Z,14.90
2019-06-07T00:57:32.790Z,14.90
2019-06-07T01:00:02.997Z,14.90
2019-06-07T01:02:32.768Z,14.80
2019-06-07T01:05:04.092Z,14.80
2019-06-07T01:07:34.023Z,14.80
2019-06-07T01:10:05.618Z,14.80
2019-06-07T01:12:35.413Z,14.80
2019-06-07T01:15:08.603Z,14.70
2019-06-07T01:17:49.936Z,14.70
2019-06-07T01:20:12.214Z,14.70
2019-06-07T01:22:41.959Z,14.70
2019-06-07T01:25:15.739Z,14.70
2019-06-07T01:27:45.836Z,14.70
2019-06-07T01:30:18.850Z,14.70
2019-06-07T01:32:49.567Z,14.70
2019-06-07T01:35:20.637Z,14.70
2019-06-07T01:37:50.785Z,14.70
2019-06-07T01:40:26.769Z,14.70
2019-06-07T01:42:52.669Z,14.70
2019-06-07T01:45:23.888Z,14.70
2019-06-07T01:47:56.012Z,14.70
2019-06-07T01:50:27.345Z,14.70
2019-06-07T01:52:57.030Z,14.70
2019-06-07T01:55:31.499Z,14.70
2019-06-07T01:57:58.182Z,14.70
2019-06-07T02:00:32.290Z,14.70
2019-06-07T02:03:00.863Z,14.70
2019-06-07T02:05:32.361Z,14.70
2019-06-07T02:08:02.944Z,14.70
2019-06-07T02:10:33.620Z,14.80
2019-06-07T02:13:03.632Z,14.80
2019-06-07T02:15:36.736Z,14.80
2019-06-07T02:18:05.357Z,14.90
2019-06-07T02:20:36.167Z,14.90
2019-06-07T02:23:06.183Z,14.90
2019-06-07T02:25:46.607Z,15.00
2019-06-07T02:28:27.328Z,15.00
2019-06-07T02:30:58.603Z,15.10
2019-06-07T02:33:16.199Z,15.10
2019-06-07T02:35:45.878Z,15.10
2019-06-07T02:38:17.326Z,15.20
2019-06-07T02:40:46.995Z,15.20
2019-06-07T02:43:16.671Z,15.20
2019-06-07T02:45:46.975Z,15.30
2019-06-07T02:48:16.723Z,15.30
2019-06-07T02:50:46.835Z,15.30
2019-06-07T02:53:16.561Z,15.40
2019-06-07T02:56:34.316Z,15.40
2019-06-07T02:58:20.179Z,15.40
2019-06-07T03:01:07.055Z,15.40
2019-06-07T03:03:22.826Z,15.50
2019-06-07T03:05:52.502Z,15.50
2019-06-07T03:08:22.201Z,15.50
2019-06-07T03:10:52.084Z,15.50
2019-06-07T03:13:23.659Z,15.60
2019-06-07T03:15:55.802Z,15.60
2019-06-07T03:18:43.231Z,15.60
2019-06-07T03:21:15.462Z,15.60
2019-06-07T03:23:47.166Z,15.60
2019-06-07T03:26:18.455Z,15.60
2019-06-07T03:28:49.138Z,15.60
2019-06-07T03:31:18.835Z,15.60
2019-06-07T03:33:48.544Z,15.60
2019-06-07T03:36:23.895Z,15.60
2019-06-07T03:38:49.897Z,15.60
2019-06-07T03:41:19.678Z,15.60
2019-06-07T03:43:49.416Z,15.60
2019-06-07T03:46:19.115Z,15.60
2019-06-07T03:48:48.811Z,15.60
2019-06-07T03:51:25.306Z,15.60
2019-06-07T03:53:49.983Z,15.60
2019-06-07T03:56:19.668Z,15.60
2019-06-07T03:58:50.537Z,15.60
2019-06-07T04:01:20.517Z,15.60
2019-06-07T04:03:51.724Z,15.60
2019-06-07T04:06:21.809Z,15.60
2019-06-07T04:08:51.475Z,15.60
2019-06-07T04:11:21.157Z,15.60
2019-06-07T04:13:50.854Z,15.60
2019-06-07T04:16:20.507Z,15.60
2019-06-07T04:18:50.266Z,15.60
2019-06-07T04:21:19.974Z,15.60
2019-06-07T04:23:49.666Z,15.60
2019-06-07T04:26:19.359Z,15.60
2019-06-07T04:29:31.502Z,15.60
2019-06-07T04:31:20.508Z,15.60
2019-06-07T04:33:50.622Z,15.60
2019-06-07T04:36:39.377Z,15.60
2019-06-07T04:38:55.375Z,15.60
2019-06-07T04:41:28.725Z,15.60
2019-06-07T04:44:02.631Z,15.60
2019-06-07T04:46:35.228Z,15.60
2019-06-07T04:49:05.503Z,15.60
2019-06-07T04:51:40.768Z,15.60
2019-06-07T04:54:09.786Z,15.70
2019-06-07T04:56:44.264Z,15.70
2019-06-07T05:00:00.170Z,15.80
2019-06-07T05:01:45.248Z,15.80
2019-06-07T05:04:14.960Z,15.90
2019-06-07T05:06:44.712Z,15.90
2019-06-07T05:09:14.392Z,15.90
2019-06-07T05:11:45.028Z,15.90
2019-06-07T05:14:15.236Z,15.90
2019-06-07T05:16:45.006Z,16.00
2019-06-07T05:19:14.782Z,16.00
2019-06-07T05:22:02.847Z,16.00
2019-06-07T05:24:15.866Z,16.00
2019-06-07T05:26:45.583Z,16.00
2019-06-07T05:29:16.600Z,16.00
2019-06-07T05:31:46.983Z,16.00
2019-06-07T05:34:16.696Z,16.00
2019-06-07T05:37:08.438Z,16.00
2019-06-07T05:39:17.790Z,16.10
2019-06-07T05:41:48.632Z,16.10
2019-06-07T05:44:18.311Z,16.10
2019-06-07T05:46:47.974Z,16.10
2019-06-07T05:49:17.713Z,16.10
2019-06-07T05:51:47.783Z,16.10
2019-06-07T05:54:17.523Z,16.10
2019-06-07T05:56:47.742Z,16.20
2019-06-07T05:59:17.555Z,16.20
2019-06-07T06:01:58.971Z,16.20
2019-06-07T06:04:18.725Z,16.20
2019-06-07T06:06:48.413Z,16.20
2019-06-07T06:09:18.083Z,16.20
2019-06-07T06:11:59.714Z,16.20
2019-06-07T06:14:19.184Z,16.30
2019-06-07T06:16:50.055Z,16.30
2019-06-07T06:19:19.928Z,16.30
2019-06-07T06:21:54.432Z,16.40
2019-06-07T06:24:24.107Z,16.40
2019-06-07T06:27:12.389Z,16.40
2019-06-07T06:29:26.710Z,16.50
2019-06-07T06:32:40.525Z,16.50
2019-06-07T06:34:27.833Z,16.60
2019-06-07T06:36:57.507Z,16.60
2019-06-07T06:39:27.177Z,16.70
2019-06-07T06:42:03.331Z,16.70
2019-06-07T06:44:28.268Z,16.80
2019-06-07T06:46:58.666Z,16.90
2019-06-07T06:49:28.454Z,17.00
2019-06-07T06:51:58.124Z,17.10
2019-06-07T06:54:40.111Z,17.10
2019-06-07T06:57:18.102Z,17.20
2019-06-07T06:59:39.251Z,17.20
2019-06-07T07:02:04.225Z,17.30
2019-06-07T07:04:34.231Z,17.40
2019-06-07T07:07:04.221Z,17.50
2019-06-07T07:09:34.798Z,17.50
2019-06-07T07:12:11.690Z,17.60
2019-06-07T07:14:46.991Z,17.60
2019-06-07T07:17:14.875Z,17.70
2019-06-07T07:19:47.962Z,17.80
2019-06-07T07:22:16.052Z,17.80
2019-06-07T07:24:47.047Z,17.90
2019-06-07T07:27:17.297Z,17.90
2019-06-07T07:29:52.560Z,18.00
2019-06-07T07:32:18.758Z,18.00
2019-06-07T07:34:52.670Z,18.10
2019-06-07T07:37:27.080Z,18.10
2019-06-07T07:40:21.123Z,18.10
2019-06-07T07:42:33.904Z,18.10
2019-06-07T07:45:09.057Z,18.20
2019-06-07T07:47:58.249Z,18.20
2019-06-07T07:50:11.192Z,18.20
2019-06-07T07:52:45.826Z,18.30
2019-06-07T07:55:16.884Z,18.40
2019-06-07T07:57:58.072Z,18.60
2019-06-07T08:00:50.384Z,18.60
2019-06-07T08:02:59.616Z,18.70
2019-06-07T08:05:41.888Z,18.80
2019-06-07T08:08:04.755Z,18.90
2019-06-07T08:10:31.705Z,19.00
2019-06-07T08:13:22.162Z,19.10
2019-06-07T08:15:34.618Z,19.20
2019-06-07T08:18:04.894Z,19.30
2019-06-07T08:20:34.866Z,19.40
2019-06-07T08:23:04.834Z,19.50
2019-06-07T08:25:34.526Z,19.60
2019-06-07T08:28:04.564Z,19.60
2019-06-07T08:30:50.279Z,19.70
2019-06-07T08:33:25.211Z,19.70
2019-06-07T08:38:25.808Z,19.70
2019-06-07T08:40:42.856Z,19.60
2019-06-07T08:43:20.331Z,19.70
2019-06-07T08:45:44.444Z,19.70
2019-06-07T08:48:27.605Z,19.70
2019-06-07T08:50:45.515Z,19.70
2019-06-07T08:53:15.276Z,19.60
2019-06-07T08:55:44.955Z,19.60
2019-06-07T08:58:14.634Z,19.60
2019-06-07T09:00:47.047Z,19.50
2019-06-07T09:03:15.904Z,19.50
2019-06-07T09:05:45.547Z,19.40
2019-06-07T09:08:29.243Z,19.30
2019-06-07T09:10:46.677Z,19.20
2019-06-07T09:13:17.220Z,19.10
2019-06-07T09:15:46.945Z,19.10
2019-06-07T09:18:41.342Z,19.00
2019-06-07T09:20:49.831Z,18.90
2019-06-07T09:23:21.921Z,18.90
2019-06-07T09:26:00.845Z,18.80
2019-06-07T09:28:26.130Z,18.70
2019-06-07T09:30:59.258Z,18.60
2019-06-07T09:33:27.462Z,18.50
2019-06-07T09:35:58.636Z,18.40
2019-06-07T09:38:28.511Z,18.40
2019-06-07T09:41:00.500Z,18.30
2019-06-07T09:44:00.778Z,18.20
2019-06-07T09:46:09.704Z,18.20
2019-06-07T09:49:09.712Z,18.10
2019-06-07T09:51:13.266Z,18.00
2019-06-07T09:53:37.092Z,17.90
2019-06-07T09:56:11.189Z,17.90
2019-06-07T09:58:54.461Z,17.80
2019-06-07T10:01:13.768Z,17.80
2019-06-07T10:03:42.001Z,17.70
2019-06-07T10:06:13.675Z,17.70
2019-06-07T10:11:16.258Z,17.60
2019-06-07T10:13:46.013Z,17.60
2019-06-07T10:16:15.712Z,17.50
2019-06-07T10:18:45.400Z,17.50
2019-06-07T10:21:15.709Z,17.40
2019-06-07T10:23:45.554Z,17.40
2019-06-07T10:26:15.262Z,17.40
2019-06-07T10:28:44.928Z,17.30
2019-06-07T10:31:14.667Z,17.20
2019-06-07T10:33:44.680Z,17.20
2019-06-07T10:36:14.431Z,17.10
2019-06-07T10:38:44.111Z,17.00
2019-06-07T10:41:13.918Z,17.10
2019-06-07T10:43:43.575Z,17.10
2019-06-07T10:46:13.363Z,17.10
2019-06-07T10:48:43.053Z,17.10
2019-06-07T10:51:14.707Z,17.10
2019-06-07T10:53:44.621Z,17.10
2019-06-07T10:56:14.328Z,17.10
2019-06-07T10:58:44.231Z,17.10
2019-06-07T11:01:14.518Z,17.10
2019-06-07T11:03:44.728Z,17.20
2019-06-07T11:06:14.458Z,17.20
2019-06-07T11:08:45.692Z,17.20
2019-06-07T11:11:15.464Z,17.20
2019-06-07T11:13:45.151Z,17.20
2019-06-07T11:16:16.454Z,17.20
2019-06-07T11:18:46.360Z,17.20
2019-06-07T11:21:16.137Z,17.20
2019-06-07T11:23:46.830Z,17.20
2019-06-07T11:26:16.645Z,17.20
2019-06-07T11:28:47.862Z,17.20
2019-06-07T11:31:19.294Z,17.20
2019-06-07T11:33:50.351Z,17.20
2019-06-07T11:36:20.115Z,17.20
2019-06-07T11:38:49.926Z,17.20
2019-06-07T11:41:19.625Z,17.10
2019-06-07T11:43:49.288Z,17.10
2019-06-07T11:46:18.960Z,17.00
2019-06-07T11:48:48.659Z,17.00
2019-06-07T11:51:18.938Z,16.90
2019-06-07T11:53:51.638Z,16.90
2019-06-07T11:56:22.713Z,16.90
2019-06-07T11:58:52.467Z,16.90
2019-06-07T12:01:22.339Z,16.90
2019-06-07T12:03:54.434Z,16.50
2019-06-07T12:06:24.099Z,17.00
2019-06-07T12:08:53.765Z,17.10
2019-06-07T12:11:23.475Z,17.20
2019-06-07T12:13:54.400Z,17.30
2019-06-07T12:16:24.085Z,17.30
2019-06-07T12:18:53.823Z,17.40
2019-06-07T12:21:23.495Z,17.40
2019-06-07T12:23:53.175Z,17.40
2019-06-07T12:26:22.850Z,17.40
2019-06-07T12:28:54.572Z,17.50
2019-06-07T12:31:26.165Z,17.50
2019-06-07T12:33:55.857Z,17.60
2019-06-07T12:36:25.744Z,17.70
2019-06-07T12:38:55.438Z,17.80
2019-06-07T12:41:25.436Z,17.90
2019-06-07T12:43:55.090Z,17.90
2019-06-07T12:46:28.534Z,17.90
2019-06-07T12:48:56.263Z,17.90
2019-06-07T12:51:25.933Z,18.00
2019-06-07T12:53:55.612Z,18.00
2019-06-07T12:56:25.308Z,17.90
2019-06-07T12:58:54.991Z,17.90
2019-06-07T13:01:26.091Z,17.90
2019-06-07T13:03:55.787Z,17.90
2019-06-07T13:06:27.996Z,17.90
2019-06-07T13:08:57.858Z,17.90
2019-06-07T13:11:31.275Z,17.80
2019-06-07T13:13:58.919Z,17.90
2019-06-07T13:16:30.661Z,17.90
2019-06-07T13:19:00.384Z,17.80
2019-06-07T13:21:31.689Z,17.80
2019-06-07T13:24:02.944Z,17.80
2019-06-07T13:26:32.644Z,17.70
2019-06-07T13:29:02.307Z,17.70
2019-06-07T13:31:34.133Z,17.50
2019-06-07T13:34:04.408Z,17.50
2019-06-07T13:36:34.160Z,17.50
2019-06-07T13:39:06.970Z,17.40
2019-06-07T13:41:42.814Z,17.40
2019-06-07T13:44:08.135Z,17.30
2019-06-07T13:46:38.781Z,17.30
2019-06-07T13:49:08.481Z,17.30
2019-06-07T13:51:38.486Z,17.20
2019-06-07T13:54:09.570Z,17.20
2019-06-07T13:57:00.792Z,17.20
2019-06-07T13:59:12.506Z,17.20
2019-06-07T14:01:42.290Z,17.20
2019-06-07T14:04:12.776Z,17.20
2019-06-07T14:06:43.917Z,17.20
2019-06-07T14:09:13.685Z,17.20
2019-06-07T14:11:50.551Z,17.30
2019-06-07T14:14:16.540Z,17.30
2019-06-07T14:16:46.302Z,17.40
2019-06-07T14:19:17.651Z,17.40
2019-06-07T14:21:47.391Z,17.50
2019-06-07T14:24:17.073Z,17.60
2019-06-07T14:26:48.377Z,17.60
2019-06-07T14:29:18.268Z,17.70
2019-06-07T14:31:48.087Z,17.70
2019-06-07T14:34:19.405Z,17.80
2019-06-07T14:36:51.900Z,17.80
2019-06-07T14:39:22.960Z,17.80
2019-06-07T14:42:08.057Z,17.80
2019-06-07T14:44:26.108Z,17.90
2019-06-07T14:46:55.886Z,17.90
2019-06-07T14:49:26.396Z,18.00
2019-06-07T14:51:56.196Z,18.20
2019-06-07T14:54:27.439Z,18.30
2019-06-07T14:56:57.410Z,18.40
2019-06-07T14:59:28.413Z,18.50
2019-06-07T15:01:58.243Z,18.50
2019-06-07T15:04:28.979Z,18.60
2019-06-07T15:06:58.643Z,18.70
2019-06-07T15:09:29.024Z,18.90
2019-06-07T15:11:58.918Z,19.10
2019-06-07T15:14:29.287Z,19.30
2019-06-07T15:16:59.373Z,19.40
2019-06-07T15:19:29.189Z,19.50
2019-06-07T15:21:59.059Z,19.60
2019-06-07T15:24:32.563Z,19.70
2019-06-07T15:27:00.141Z,19.70
2019-06-07T15:29:29.870Z,19.80
2019-06-07T15:32:01.934Z,19.80
2019-06-07T15:34:32.380Z,19.80
2019-06-07T15:37:02.188Z,19.80
2019-06-07T15:39:32.813Z,19.80
2019-06-07T15:42:02.495Z,19.80
2019-06-07T15:44:33.325Z,19.80
2019-06-07T15:47:03.323Z,19.70
2019-06-07T15:49:34.159Z,19.70
2019-06-07T15:52:04.238Z,19.60
2019-06-07T15:54:35.084Z,19.60
2019-06-07T15:57:04.838Z,19.60
2019-06-07T15:59:35.812Z,19.70
2019-06-07T16:02:07.600Z,19.80
2019-06-07T16:04:37.689Z,19.80
2019-06-07T16:07:07.537Z,19.90
2019-06-07T16:09:38.492Z,19.90
2019-06-07T16:12:08.247Z,20.00
2019-06-07T16:14:39.096Z,20.20
2019-06-07T16:17:09.304Z,20.30
2019-06-07T16:19:42.862Z,20.40
2019-06-07T16:22:10.526Z,20.50
2019-06-07T16:24:40.222Z,20.70
2019-06-07T16:27:09.908Z,20.90
2019-06-07T16:29:40.628Z,21.00
2019-06-07T16:32:10.458Z,21.20
2019-06-07T16:34:41.841Z,21.30
2019-06-07T16:37:11.660Z,21.40
2019-06-07T16:39:42.845Z,21.50
2019-06-07T16:42:12.526Z,21.60
2019-06-07T16:44:42.600Z,21.70
2019-06-07T16:47:12.339Z,22.10
2019-06-07T16:49:42.953Z,22.40
2019-06-07T16:52:12.776Z,22.60
2019-06-07T16:54:43.598Z,22.70
2019-06-07T16:57:13.294Z,23.00
2019-06-07T16:59:47.681Z,23.40
2019-06-07T17:02:14.609Z,23.60
2019-06-07T17:04:45.567Z,23.90
2019-06-07T17:07:15.290Z,24.00
2019-06-07T17:09:47.234Z,24.10
2019-06-07T17:12:16.611Z,24.10
2019-06-07T17:14:48.704Z,24.00
2019-06-07T17:17:20.709Z,24.00
2019-06-07T17:19:56.834Z,23.90
2019-06-07T17:22:30.893Z,23.80
2019-06-07T17:25:00.637Z,23.70
2019-06-07T17:27:31.725Z,23.60
2019-06-07T17:30:01.504Z,23.50
2019-06-07T17:32:47.750Z,23.30
2019-06-07T17:35:07.013Z,23.20
2019-06-07T17:37:38.224Z,23.10
2019-06-07T17:40:09.391Z,23.00
2019-06-07T17:42:39.057Z,22.90
2019-06-07T17:45:12.098Z,22.80
2019-06-07T17:47:45.819Z,22.30
2019-06-07T17:50:16.431Z,22.60
2019-06-07T17:52:46.243Z,22.50
2019-06-07T17:55:18.741Z,22.50
2019-06-07T17:57:48.927Z,22.40
2019-06-07T18:00:29.022Z,22.40
2019-06-07T18:02:53.032Z,22.30
2019-06-07T18:05:23.350Z,22.40
2019-06-07T18:07:54.865Z,22.40
2019-06-07T18:10:39.682Z,22.40
2019-06-07T18:13:09.365Z,22.40
2019-06-07T18:15:53.268Z,22.50
2019-06-07T18:18:19.651Z,22.60
2019-06-07T18:20:51.633Z,22.60
2019-06-07T18:23:21.937Z,22.70
2019-06-07T18:25:52.561Z,22.80
2019-06-07T18:28:22.358Z,22.80
2019-06-07T18:30:52.815Z,22.80
2019-06-07T18:33:22.755Z,22.80
2019-06-07T18:35:53.317Z,22.80
2019-06-07T18:38:23.242Z,22.80
2019-06-07T18:40:53.308Z,22.90
2019-06-07T18:43:23.230Z,23.00
2019-06-07T18:45:53.559Z,23.00
2019-06-07T18:48:23.502Z,22.90
2019-06-07T18:50:54.698Z,22.80
2019-06-07T18:53:24.473Z,22.60
2019-06-07T18:55:54.180Z,22.60
2019-06-07T18:58:23.942Z,22.40
2019-06-07T19:00:53.871Z,22.30
2019-06-07T19:03:23.613Z,22.20
2019-06-07T19:05:54.274Z,22.00
2019-06-07T19:08:24.085Z,21.80
2019-06-07T19:10:54.806Z,21.70
2019-06-07T19:13:24.632Z,21.50
2019-06-07T19:15:55.452Z,21.30
2019-06-07T19:18:25.359Z,21.10
2019-06-07T19:20:56.493Z,20.90
2019-06-07T19:23:27.806Z,20.70
2019-06-07T19:25:58.864Z,20.50
2019-06-07T19:28:30.021Z,20.30
2019-06-07T19:31:03.586Z,20.10
2019-06-07T19:33:48.360Z,19.90
2019-06-07T19:36:07.974Z,19.70
2019-06-07T19:38:37.953Z,19.60
2019-06-07T19:41:19.147Z,19.40
2019-06-07T19:43:39.070Z,19.20
2019-06-07T19:46:08.791Z,19.10
2019-06-07T19:48:38.555Z,19.00
2019-06-07T19:51:09.689Z,18.80
2019-06-07T19:53:39.378Z,18.70
2019-06-07T19:56:09.297Z,18.60
2019-06-07T19:58:38.947Z,18.40
2019-06-07T20:01:08.648Z,18.30
2019-06-07T20:03:38.329Z,18.20
2019-06-07T20:06:07.999Z,18.10
2019-06-07T20:08:37.914Z,18.00
2019-06-07T20:11:07.576Z,17.90
2019-06-07T20:13:37.262Z,17.80
2019-06-07T20:16:07.972Z,17.70
2019-06-07T20:18:37.795Z,17.60
2019-06-07T20:21:09.275Z,17.50
2019-06-07T20:23:39.202Z,17.40
2019-06-07T20:26:08.954Z,17.30
2019-06-07T20:28:38.796Z,17.20
2019-06-07T20:31:09.889Z,17.10
2019-06-07T20:33:41.111Z,17.00
2019-06-07T20:36:10.795Z,16.90
2019-06-07T20:38:40.584Z,16.90
2019-06-07T20:41:10.258Z,16.80
2019-06-07T20:43:39.947Z,16.70
2019-06-07T20:46:09.722Z,16.70
2019-06-07T20:48:39.508Z,16.60
2019-06-07T20:51:09.320Z,16.50
2019-06-07T20:53:39.221Z,16.50
2019-06-07T20:56:09.374Z,16.40
2019-06-07T20:58:39.085Z,16.40
2019-06-07T21:01:09.115Z,16.30
2019-06-07T21:03:38.728Z,16.30
2019-06-07T21:06:09.867Z,16.30
2019-06-07T21:08:39.945Z,16.20
2019-06-07T21:11:09.874Z,16.20
2019-06-07T21:13:41.308Z,16.20
2019-06-07T21:16:11.129Z,16.20
2019-06-07T21:18:40.813Z,16.20
2019-06-07T21:21:10.676Z,16.20
2019-06-07T21:23:40.380Z,16.20
2019-06-07T21:26:11.053Z,16.20
2019-06-07T21:28:40.916Z,16.20
2019-06-07T21:31:10.643Z,16.20
2019-06-07T21:33:40.361Z,16.20
2019-06-07T21:36:10.060Z,16.20
2019-06-07T21:38:40.512Z,16.30
2019-06-07T21:41:10.617Z,16.30
2019-06-07T21:43:42.025Z,16.30
2019-06-07T21:46:19.626Z,16.40
2019-06-07T21:48:43.132Z,16.40
2019-06-07T21:51:12.819Z,16.50
2019-06-07T21:53:42.602Z,16.60
2019-06-07T21:56:13.383Z,16.60
2019-06-07T21:58:44.934Z,16.60
2019-06-07T22:01:19.082Z,16.60
2019-06-07T22:03:48.768Z,16.70
2019-06-07T22:06:20.439Z,16.60
2019-06-07T22:08:51.523Z,16.60
2019-06-07T22:11:21.176Z,16.60
2019-06-07T22:13:50.860Z,16.60
2019-06-07T22:16:28.548Z,16.50
2019-06-07T22:18:51.946Z,16.50
2019-06-07T22:21:21.646Z,16.40
2019-06-07T22:23:51.416Z,16.40
2019-06-07T22:26:23.034Z,16.30
2019-06-07T22:28:52.714Z,16.30
2019-06-07T22:31:22.880Z,16.20
2019-06-07T22:33:52.584Z,16.20
2019-06-07T22:36:22.271Z,16.10
2019-06-07T22:38:52.145Z,16.00
2019-06-07T22:41:21.808Z,15.90
2019-06-07T22:43:51.667Z,15.90
2019-06-07T22:46:36.374Z,15.80
2019-06-07T22:48:52.961Z,15.70
2019-06-07T22:51:22.783Z,15.60
2019-06-07T22:53:52.484Z,15.60
2019-06-07T22:56:23.806Z,15.50
2019-06-07T22:58:53.455Z,15.50
2019-06-07T23:01:23.448Z,15.50
2019-06-07T23:03:53.113Z,15.40
2019-06-07T23:06:22.819Z,15.40
2019-06-07T23:08:52.465Z,15.40
2019-06-07T23:11:22.170Z,15.40
2019-06-07T23:13:51.853Z,15.30
2019-06-07T23:16:21.627Z,15.30
2019-06-07T23:18:51.363Z,15.30
2019-06-07T23:21:21.042Z,15.30
2019-06-07T23:23:50.905Z,15.20
2019-06-07T23:26:20.724Z,15.20
2019-06-07T23:28:50.644Z,15.20
2019-06-07T23:31:21.810Z,15.20
2019-06-07T23:33:51.521Z,15.10
2019-06-07T23:36:21.467Z,15.10
2019-06-07T23:38:51.455Z,15.10
2019-06-07T23:41:22.326Z,15.10
2019-06-07T23:43:52.169Z,15.10
2019-06-07T23:46:23.630Z,15.10
2019-06-07T23:48:53.367Z,15.10
2019-06-07T23:51:23.096Z,15.10
2019-06-07T23:53:53.409Z,15.10
2019-06-07T23:56:23.197Z,15.10
2019-06-07T23:58:52.879Z,15.10
